Woodville, West Virginia
Current Conditions -  °F | °C
As of 10:54 AM on Sunday 23 Nov 2014 (Local Time) from KCRW Reporting Station
Broken Clouds Broken Clouds  
Wind Chill: 58°   Ceiling: 30000
Heat Index: 58°   Visibility: 10mi
Dew Point: 34°   Wind: 0mph
Humidity: 41%   Direction: NA
Pressure: 30.02"   Gusts: NA
Location:  38.16°N, 81.89°W
Report Text: KCRW 231554Z 00000KT 10SM SCT055 SCT170 BKN300 14/01 A3002 RMK AO2 SLP166 T01440011
Loading
Personal Weather Stations






























Interactive Weather Map New forecast layout! Learn more

10-Day Weather Forecast

Advertisements
Track Severe Weather on mobile